createdAt,value
2022-08-19T00:01:29.188Z,98723.53
2022-08-19T00:03:58.122Z,98722.88
2022-08-19T00:06:25.543Z,98730.56
2022-08-19T00:08:53.215Z,98732.63
2022-08-19T00:11:26.075Z,98728.44
2022-08-19T00:13:53.745Z,98726.94
2022-08-19T00:16:25.088Z,98723.06
2022-08-19T00:18:56.362Z,98721.38
2022-08-19T00:21:23.950Z,98715.50
2022-08-19T00:23:51.408Z,98705.63
2022-08-19T00:26:18.806Z,98703.91
2022-08-19T00:28:46.231Z,98705.53
2022-08-19T00:31:13.653Z,98693.84
2022-08-19T00:33:41.636Z,98696.00
2022-08-19T00:36:11.109Z,98684.59
2022-08-19T00:38:43.735Z,98683.56
2022-08-19T00:41:11.831Z,98678.63
2022-08-19T00:43:39.708Z,98678.09
2022-08-19T00:46:07.234Z,98671.91
2022-08-19T00:48:35.285Z,98674.59
2022-08-19T00:51:03.076Z,98680.44
2022-08-19T00:53:34.986Z,98683.09
2022-08-19T00:56:03.197Z,98680.19
2022-08-19T00:58:32.053Z,98686.69
2022-08-19T01:00:59.714Z,98682.81
2022-08-19T01:03:27.440Z,98688.53
2022-08-19T01:05:56.113Z,98688.00
2022-08-19T01:08:24.151Z,98681.13
2022-08-19T01:10:55.079Z,98677.94
2022-08-19T01:13:23.590Z,98672.22
2022-08-19T01:15:54.020Z,98672.06
2022-08-19T01:18:22.295Z,98663.88
2022-08-19T01:20:49.809Z,98665.03
2022-08-19T01:23:18.535Z,98666.53
2022-08-19T01:25:47.566Z,98661.72
2022-08-19T01:28:17.329Z,98657.38
2022-08-19T01:30:51.124Z,98658.50
2022-08-19T01:33:18.699Z,98660.19
2022-08-19T01:35:46.054Z,98657.84
2022-08-19T01:38:22.688Z,98651.81
2022-08-19T01:40:50.031Z,98656.00
2022-08-19T01:43:17.452Z,98661.50
2022-08-19T01:45:44.810Z,98648.44
2022-08-19T01:48:12.200Z,98656.47
2022-08-19T01:50:39.693Z,98660.97
2022-08-19T01:53:08.861Z,98655.78
2022-08-19T01:55:40.524Z,98675.66
2022-08-19T01:58:10.104Z,98666.47
2022-08-19T02:00:38.213Z,98667.66
2022-08-19T02:03:05.635Z,98661.91
2022-08-19T02:05:32.967Z,98657.56
2022-08-19T02:08:00.425Z,98656.69
2022-08-19T02:10:27.776Z,98659.38
2022-08-19T02:12:56.493Z,98658.06
2022-08-19T02:15:24.513Z,98654.34
2022-08-19T02:17:51.857Z,98657.84
2022-08-19T02:20:19.315Z,98662.53
2022-08-19T02:22:46.775Z,98650.16
2022-08-19T02:25:14.921Z,98659.63
2022-08-19T02:27:43.612Z,98652.00
2022-08-19T02:30:14.614Z,98652.84
2022-08-19T02:32:44.390Z,98647.63
2022-08-19T02:35:12.840Z,98644.28
2022-08-19T02:37:57.958Z,98646.09
2022-08-19T02:40:25.303Z,98641.91
2022-08-19T02:42:52.739Z,98644.88
2022-08-19T02:45:21.708Z,98647.88
2022-08-19T02:47:49.062Z,98649.56
2022-08-19T02:50:16.480Z,98642.38
2022-08-19T02:52:43.849Z,98646.88
2022-08-19T02:55:11.373Z,98652.06
2022-08-19T02:57:38.758Z,98646.16
2022-08-19T03:00:06.991Z,98656.19
2022-08-19T03:02:35.924Z,98649.16
2022-08-19T03:05:05.131Z,98654.28
2022-08-19T03:07:32.755Z,98656.56
2022-08-19T03:10:00.596Z,98655.72
2022-08-19T03:12:27.950Z,98656.56
2022-08-19T03:14:55.335Z,98662.63
2022-08-19T03:17:22.704Z,98653.72
2022-08-19T03:19:51.393Z,98646.88
2022-08-19T03:22:18.754Z,98644.38
2022-08-19T03:24:46.808Z,98652.72
2022-08-19T03:27:15.086Z,98654.00
2022-08-19T03:29:43.150Z,98657.69
2022-08-19T03:32:31.659Z,98652.78
2022-08-19T03:35:00.153Z,98649.09
2022-08-19T03:37:27.684Z,98644.47
2022-08-19T03:39:55.157Z,98649.81
2022-08-19T03:42:38.248Z,98651.53
2022-08-19T03:45:11.375Z,98649.34
2022-08-19T03:47:39.000Z,98652.47
2022-08-19T03:50:09.617Z,98653.84
2022-08-19T03:52:37.373Z,98661.88
2022-08-19T03:55:05.141Z,98657.81
2022-08-19T03:57:33.325Z,98658.56
2022-08-19T04:00:06.839Z,98662.34
2022-08-19T04:02:41.265Z,98661.81
2022-08-19T04:05:10.621Z,98665.09
2022-08-19T04:07:37.987Z,98668.59
2022-08-19T04:10:05.785Z,98654.84
2022-08-19T04:12:33.284Z,98656.81
2022-08-19T04:15:00.649Z,98663.16
2022-08-19T04:17:27.997Z,98661.00
2022-08-19T04:19:55.358Z,98655.16
2022-08-19T04:22:24.043Z,98659.19
2022-08-19T04:24:54.529Z,98662.56
2022-08-19T04:27:21.955Z,98666.34
2022-08-19T04:29:50.111Z,98654.69
2022-08-19T04:32:17.495Z,98646.16
2022-08-19T04:35:01.237Z,98651.63
2022-08-19T04:37:35.601Z,98656.72
2022-08-19T04:40:21.340Z,98660.69
2022-08-19T04:42:48.854Z,98674.31
2022-08-19T04:45:17.400Z,98670.41
2022-08-19T04:47:48.106Z,98687.53
2022-08-19T04:50:26.056Z,98677.97
2022-08-19T04:52:56.462Z,98664.75
2022-08-19T04:55:26.560Z,98666.75
2022-08-19T04:57:54.044Z,98661.41
2022-08-19T05:00:21.533Z,98663.25
2022-08-19T05:02:50.325Z,98669.13
2022-08-19T05:05:18.275Z,98668.28
2022-08-19T05:07:45.670Z,98667.75
2022-08-19T05:10:14.825Z,98660.84
2022-08-19T05:12:42.238Z,98656.09
2022-08-19T05:15:11.850Z,98659.88
2022-08-19T05:17:59.198Z,98663.22
2022-08-19T05:20:43.981Z,98667.34
2022-08-19T05:23:19.470Z,98667.50
2022-08-19T05:25:52.454Z,98680.25
2022-08-19T05:28:20.340Z,98681.81
2022-08-19T05:30:49.042Z,98694.72
2022-08-19T05:33:16.768Z,98696.25
2022-08-19T05:35:44.911Z,98703.72
2022-08-19T05:38:13.190Z,98695.25
2022-08-19T05:40:40.938Z,98696.97
2022-08-19T05:43:10.326Z,98688.53
2022-08-19T05:45:40.159Z,98687.84
2022-08-19T05:48:07.714Z,98695.56
2022-08-19T05:50:35.076Z,98698.06
2022-08-19T05:53:02.416Z,98700.59
2022-08-19T05:55:29.837Z,98705.09
2022-08-19T05:57:57.272Z,98722.41
2022-08-19T06:00:26.153Z,98719.84
2022-08-19T06:02:55.658Z,98717.34
2022-08-19T06:05:23.203Z,98723.34
2022-08-19T06:07:50.589Z,98729.00
2022-08-19T06:10:17.964Z,98729.84
2022-08-19T06:12:45.332Z,98735.44
2022-08-19T06:15:14.736Z,98750.03
2022-08-19T06:17:45.287Z,98751.88
2022-08-19T06:20:14.432Z,98746.16
2022-08-19T06:22:42.345Z,98752.31
2022-08-19T06:25:11.041Z,98755.84
2022-08-19T06:27:45.055Z,98753.72
2022-08-19T06:30:20.793Z,98753.59
2022-08-19T06:32:49.503Z,98745.56
2022-08-19T06:35:16.930Z,98751.47
2022-08-19T06:37:45.228Z,98750.50
2022-08-19T06:40:13.501Z,98750.78
2022-08-19T06:42:44.392Z,98756.28
2022-08-19T06:45:24.988Z,98763.44
2022-08-19T06:48:03.531Z,98764.25
2022-08-19T06:50:30.955Z,98764.41
2022-08-19T06:52:58.469Z,98765.41
2022-08-19T06:55:33.525Z,98775.06
2022-08-19T06:58:04.473Z,98784.34
2022-08-19T07:03:08.728Z,98794.16
2022-08-19T07:05:40.203Z,98785.59
2022-08-19T07:08:12.785Z,98792.47
2022-08-19T07:10:44.244Z,98797.69
2022-08-19T07:13:11.608Z,98800.06
2022-08-19T07:15:39.755Z,98808.22
2022-08-19T07:18:11.878Z,98815.66
2022-08-19T07:20:40.286Z,98820.88
2022-08-19T07:23:09.742Z,98829.25
2022-08-19T07:25:39.813Z,98827.16
2022-08-19T07:28:22.471Z,98826.31
2022-08-19T07:30:52.790Z,98826.47
2022-08-19T07:33:21.984Z,98830.69
2022-08-19T07:35:50.470Z,98828.44
2022-08-19T07:38:18.045Z,98836.00
2022-08-19T07:40:46.804Z,98833.78
2022-08-19T07:43:14.285Z,98838.56
2022-08-19T07:45:45.403Z,98842.22
2022-08-19T07:48:13.450Z,98838.13
2022-08-19T07:50:42.401Z,98845.00
2022-08-19T07:53:09.774Z,98846.66
2022-08-19T07:55:41.309Z,98839.38
2022-08-19T07:58:11.083Z,98846.94
2022-08-19T08:00:38.473Z,98849.78
2022-08-19T08:03:05.847Z,98838.53
2022-08-19T08:05:50.898Z,98831.81
2022-08-19T08:08:48.296Z,98831.94
2022-08-19T08:11:16.706Z,98838.69
2022-08-19T08:13:45.424Z,98837.53
2022-08-19T08:16:14.048Z,98851.88
2022-08-19T08:18:43.220Z,98847.66
2022-08-19T08:21:10.706Z,98842.75
2022-08-19T08:23:39.739Z,98860.00
2022-08-19T08:26:07.258Z,98862.28
2022-08-19T08:28:34.649Z,98866.78
2022-08-19T08:31:02.257Z,98866.19
2022-08-19T08:33:37.021Z,98867.63
2022-08-19T08:38:15.289Z,98876.03
2022-08-19T08:40:49.635Z,98876.03
2022-08-19T08:43:26.548Z,98887.53
2022-08-19T08:46:03.595Z,98886.69
2022-08-19T08:48:39.647Z,98889.34
2022-08-19T08:51:12.210Z,98888.66
2022-08-19T08:53:44.718Z,98887.38
2022-08-19T08:56:14.253Z,98888.66
2022-08-19T08:58:54.753Z,98892.03
2022-08-19T09:01:23.270Z,98889.34
2022-08-19T09:03:51.349Z,98883.03
2022-08-19T09:06:27.892Z,98884.31
2022-08-19T09:09:12.109Z,98876.16
2022-08-19T09:11:49.632Z,98873.94
2022-08-19T09:14:49.824Z,98872.38
2022-08-19T09:17:19.678Z,98872.09
2022-08-19T09:19:53.940Z,98874.06
2022-08-19T09:22:26.042Z,98867.19
2022-08-19T09:24:56.405Z,98871.41
2022-08-19T09:27:42.130Z,98870.13
2022-08-19T09:30:14.819Z,98880.66
2022-08-19T09:32:44.193Z,98864.66
2022-08-19T09:35:12.323Z,98867.63
2022-08-19T09:37:40.371Z,98878.28
2022-08-19T09:40:12.062Z,98882.06
2022-08-19T09:42:50.395Z,98885.31
2022-08-19T09:45:23.557Z,98887.97
2022-08-19T09:47:54.126Z,98877.75
2022-08-19T09:50:23.827Z,98885.44
2022-08-19T09:52:55.486Z,98882.94
2022-08-19T09:55:31.501Z,98881.94
2022-08-19T09:58:01.444Z,98877.03
2022-08-19T10:00:28.971Z,98887.44
2022-08-19T10:02:56.586Z,98881.66
2022-08-19T10:05:42.299Z,98886.88
2022-08-19T10:08:13.687Z,98891.09
2022-08-19T10:10:46.243Z,98891.75
2022-08-19T10:13:16.879Z,98889.91
2022-08-19T10:15:47.639Z,98894.81
2022-08-19T10:18:18.741Z,98884.22
2022-08-19T10:20:51.584Z,98892.47
2022-08-19T10:23:21.196Z,98891.34
2022-08-19T10:25:50.873Z,98883.75
2022-08-19T10:28:19.401Z,98886.84
2022-08-19T10:30:47.653Z,98876.41
2022-08-19T10:33:16.119Z,98875.13
2022-08-19T10:36:05.504Z,98863.59
2022-08-19T10:38:33.155Z,98859.97
2022-08-19T10:41:08.670Z,98844.34
2022-08-19T10:43:38.111Z,98852.84
2022-08-19T10:46:09.639Z,98850.16
2022-08-19T10:48:41.901Z,98847.38
2022-08-19T10:51:27.250Z,98842.63
2022-08-19T10:53:56.330Z,98843.53
2022-08-19T10:56:42.602Z,98834.22
2022-08-19T10:59:10.706Z,98843.72
2022-08-19T11:01:38.275Z,98831.88
2022-08-19T11:04:09.379Z,98837.19
2022-08-19T11:06:40.400Z,98834.63
2022-08-19T11:09:08.374Z,98833.53
2022-08-19T11:11:40.484Z,98824.63
2022-08-19T11:14:09.007Z,98814.09
2022-08-19T11:16:37.308Z,98819.97
2022-08-19T11:19:04.811Z,98830.31
2022-08-19T11:21:34.902Z,98823.72
2022-08-19T11:24:04.571Z,98832.16
2022-08-19T11:26:32.734Z,98827.38
2022-08-19T11:29:02.807Z,98829.66
2022-08-19T11:31:32.619Z,98827.53
2022-08-19T11:34:02.487Z,98822.53
2022-08-19T11:36:30.771Z,98832.28
2022-08-19T11:38:58.259Z,98826.72
2022-08-19T11:41:26.677Z,98829.19
2022-08-19T11:43:56.111Z,98838.97
2022-08-19T11:46:26.866Z,98837.31
2022-08-19T11:48:56.032Z,98843.38
2022-08-19T11:51:25.809Z,98835.06
2022-08-19T11:53:54.214Z,98833.75
2022-08-19T11:56:22.758Z,98827.56
2022-08-19T11:58:50.641Z,98830.41
2022-08-19T12:01:20.756Z,98835.28
2022-08-19T12:03:51.556Z,98835.16
2022-08-19T12:06:29.474Z,98833.13
2022-08-19T12:08:58.260Z,98833.28
2022-08-19T12:11:26.331Z,98837.97
2022-08-19T12:13:55.936Z,98830.75
2022-08-19T12:16:28.916Z,98835.81
2022-08-19T12:18:58.943Z,98827.09
2022-08-19T12:21:29.458Z,98832.81
2022-08-19T12:23:59.084Z,98824.88
2022-08-19T12:26:28.481Z,98821.38
2022-08-19T12:28:56.299Z,98818.47
2022-08-19T12:31:23.820Z,98824.19
2022-08-19T12:33:53.328Z,98820.75
2022-08-19T12:36:23.967Z,98816.72
2022-08-19T12:38:51.904Z,98815.19
2022-08-19T12:41:23.317Z,98811.81
2022-08-19T12:43:52.017Z,98807.06
2022-08-19T12:46:22.304Z,98810.13
2022-08-19T12:48:55.196Z,98812.97
2022-08-19T12:51:26.249Z,98812.03
2022-08-19T12:53:53.717Z,98800.94
2022-08-19T12:56:23.187Z,98801.91
2022-08-19T12:58:53.084Z,98807.03
2022-08-19T13:01:22.941Z,98809.00
2022-08-19T13:03:51.146Z,98808.50
2022-08-19T13:06:20.265Z,98805.50
2022-08-19T13:08:49.428Z,98801.25
2022-08-19T13:11:19.175Z,98813.13
2022-08-19T13:13:49.075Z,98801.69
2022-08-19T13:16:17.114Z,98798.22
2022-08-19T13:18:47.757Z,98802.06
2022-08-19T13:21:15.854Z,98788.16
2022-08-19T13:23:43.572Z,98799.78
2022-08-19T13:26:13.661Z,98800.03
2022-08-19T13:28:59.959Z,98782.50
2022-08-19T13:31:47.487Z,98782.13
2022-08-19T13:34:16.106Z,98784.72
2022-08-19T13:36:43.632Z,98777.13
2022-08-19T13:39:11.694Z,98775.09
2022-08-19T13:41:48.793Z,98775.94
2022-08-19T13:44:19.774Z,98762.03
2022-08-19T13:46:48.029Z,98759.28
2022-08-19T13:49:16.878Z,98757.16
2022-08-19T13:51:45.503Z,98757.31
2022-08-19T13:54:14.163Z,98761.63
2022-08-19T13:56:44.902Z,98767.19
2022-08-19T13:59:13.317Z,98750.81
2022-08-19T14:01:41.958Z,98754.72
2022-08-19T14:04:09.804Z,98751.19
2022-08-19T14:06:37.433Z,98753.91
2022-08-19T14:09:05.762Z,98747.66
2022-08-19T14:11:33.308Z,98758.31
2022-08-19T14:14:02.229Z,98753.81
2022-08-19T14:16:31.331Z,98754.31
2022-08-19T14:18:58.704Z,98756.78
2022-08-19T14:21:26.961Z,98762.94
2022-08-19T14:23:55.718Z,98760.38
2022-08-19T14:26:25.280Z,98763.44
2022-08-19T14:28:53.186Z,98760.91
2022-08-19T14:31:27.801Z,98765.47
2022-08-19T14:33:57.852Z,98757.09
2022-08-19T14:36:25.394Z,98757.88
2022-08-19T14:38:53.039Z,98771.53
2022-08-19T14:41:22.310Z,98784.94
2022-08-19T14:43:52.393Z,98784.00
2022-08-19T14:46:26.134Z,98784.31
2022-08-19T14:48:56.840Z,98786.78
2022-08-19T14:51:27.413Z,98782.47
2022-08-19T14:53:55.201Z,98792.63
2022-08-19T14:56:25.747Z,98800.41
2022-08-19T14:58:53.967Z,98802.91
2022-08-19T15:01:24.697Z,98804.03
2022-08-19T15:03:53.940Z,98801.34
2022-08-19T15:06:23.165Z,98798.78
2022-08-19T15:08:52.563Z,98777.69
2022-08-19T15:11:23.628Z,98770.50
2022-08-19T15:13:51.995Z,98769.94
2022-08-19T15:16:20.551Z,98776.56
2022-08-19T15:18:52.172Z,98789.22
2022-08-19T15:21:26.942Z,98797.31
2022-08-19T15:23:56.019Z,98797.03
2022-08-19T15:26:23.583Z,98792.22
2022-08-19T15:28:51.110Z,98784.56
2022-08-19T15:31:28.001Z,98795.25
2022-08-19T15:33:59.014Z,98791.81
2022-08-19T15:36:27.533Z,98796.75
2022-08-19T15:38:55.544Z,98794.31
2022-08-19T15:41:24.859Z,98787.06
2022-08-19T15:43:55.411Z,98783.41
2022-08-19T15:46:25.714Z,98795.53
2022-08-19T15:48:55.999Z,98795.25
2022-08-19T15:51:31.298Z,98799.91
2022-08-19T15:54:01.144Z,98794.13
2022-08-19T15:56:58.266Z,98790.41
2022-08-19T15:59:47.409Z,98781.59
2022-08-19T16:02:33.709Z,98777.13
2022-08-19T16:05:18.855Z,98774.19
2022-08-19T16:07:48.417Z,98782.38
2022-08-19T16:10:26.278Z,98774.50
2022-08-19T16:12:56.086Z,98770.66
2022-08-19T16:15:24.023Z,98763.13
2022-08-19T16:17:56.777Z,98751.34
2022-08-19T16:20:26.200Z,98767.13
2022-08-19T16:22:56.533Z,98763.41
2022-08-19T16:25:29.032Z,98770.06
2022-08-19T16:28:07.606Z,98762.47
2022-08-19T16:30:36.285Z,98773.16
2022-08-19T16:33:03.787Z,98776.53
2022-08-19T16:35:31.360Z,98763.59
2022-08-19T16:38:00.619Z,98766.22
2022-08-19T16:40:28.147Z,98766.94
2022-08-19T16:42:56.471Z,98769.63
2022-08-19T16:45:24.159Z,98776.03
2022-08-19T16:47:51.681Z,98772.41
2022-08-19T16:50:25.378Z,98774.16
2022-08-19T16:53:03.421Z,98779.38
2022-08-19T16:55:30.919Z,98786.31
2022-08-19T16:57:58.520Z,98785.94
2022-08-19T17:00:26.008Z,98783.81
2022-08-19T17:02:53.625Z,98783.50
2022-08-19T17:05:21.456Z,98791.41
2022-08-19T17:07:48.939Z,98792.13
2022-08-19T17:10:17.750Z,98796.94
2022-08-19T17:12:45.237Z,98797.84
2022-08-19T17:15:12.979Z,98796.44
2022-08-19T17:17:41.444Z,98794.25
2022-08-19T17:20:09.727Z,98791.06
2022-08-19T17:22:37.377Z,98794.31
2022-08-19T17:25:05.869Z,98791.31
2022-08-19T17:27:34.906Z,98788.75
2022-08-19T17:30:03.195Z,98793.75
2022-08-19T17:32:32.392Z,98786.06
2022-08-19T17:34:59.851Z,98784.78
2022-08-19T17:37:28.106Z,98776.09
2022-08-19T17:39:55.634Z,98775.94
2022-08-19T17:42:23.237Z,98789.44
2022-08-19T17:44:52.243Z,98781.41
2022-08-19T17:47:20.994Z,98792.34
2022-08-19T17:49:48.569Z,98793.38
2022-08-19T17:52:16.231Z,98796.06
2022-08-19T17:54:43.725Z,98797.91
2022-08-19T17:57:11.250Z,98802.91
2022-08-19T17:59:38.877Z,98808.16
2022-08-19T18:02:10.060Z,98803.09
2022-08-19T18:04:38.952Z,98800.13
2022-08-19T18:07:06.480Z,98796.28
2022-08-19T18:09:41.431Z,98795.97
2022-08-19T18:12:12.204Z,98806.88
2022-08-19T18:14:41.151Z,98801.19
2022-08-19T18:17:12.379Z,98804.59
2022-08-19T18:19:43.750Z,98803.88
2022-08-19T18:22:14.080Z,98806.78
2022-08-19T18:24:42.649Z,98808.13
2022-08-19T18:27:13.487Z,98801.41
2022-08-19T18:29:40.975Z,98812.50
2022-08-19T18:32:13.145Z,98817.31
2022-08-19T18:34:42.040Z,98809.78
2022-08-19T18:37:09.664Z,98811.97
2022-08-19T18:39:55.269Z,98820.69
2022-08-19T18:42:40.398Z,98816.84
2022-08-19T18:45:27.739Z,98823.41
2022-08-19T18:48:26.925Z,98822.38
2022-08-19T18:50:59.931Z,98829.59
2022-08-19T18:53:29.335Z,98833.97
2022-08-19T18:55:57.306Z,98826.09
2022-08-19T18:58:31.963Z,98832.78
2022-08-19T19:01:00.314Z,98842.50
2022-08-19T19:03:29.240Z,98839.34
2022-08-19T19:05:56.812Z,98840.34
2022-08-19T19:08:27.105Z,98849.41
2022-08-19T19:10:56.263Z,98850.25
2022-08-19T19:13:23.964Z,98853.94
2022-08-19T19:15:51.649Z,98856.13
2022-08-19T19:18:19.190Z,98859.28
2022-08-19T19:20:48.058Z,98851.91
2022-08-19T19:23:15.577Z,98856.94
2022-08-19T19:25:50.491Z,98871.53
2022-08-19T19:28:25.422Z,98866.31
2022-08-19T19:30:54.221Z,98873.47
2022-08-19T19:33:21.889Z,98878.44
2022-08-19T19:35:50.780Z,98880.44
2022-08-19T19:38:18.587Z,98874.53
2022-08-19T19:40:46.451Z,98874.03
2022-08-19T19:43:17.085Z,98875.84
2022-08-19T19:45:44.875Z,98885.75
2022-08-19T19:48:13.464Z,98893.78
2022-08-19T19:50:40.987Z,98899.31
2022-08-19T19:53:09.921Z,98894.44
2022-08-19T19:55:37.777Z,98895.59
2022-08-19T19:58:06.857Z,98896.78
2022-08-19T20:00:34.681Z,98891.03
2022-08-19T20:03:02.361Z,98890.22
2022-08-19T20:05:29.893Z,98890.38
2022-08-19T20:08:14.967Z,98889.66
2022-08-19T20:10:44.804Z,98893.53
2022-08-19T20:13:15.401Z,98881.13
2022-08-19T20:15:44.327Z,98881.38
2022-08-19T20:18:14.356Z,98884.38
2022-08-19T20:20:42.515Z,98888.38
2022-08-19T20:23:10.138Z,98886.72
2022-08-19T20:25:39.468Z,98893.75
2022-08-19T20:28:08.244Z,98888.22
2022-08-19T20:30:36.317Z,98888.06
2022-08-19T20:33:07.555Z,98899.09
2022-08-19T20:35:37.227Z,98897.22
2022-08-19T20:38:08.626Z,98891.47
2022-08-19T20:40:37.814Z,98892.91
2022-08-19T20:43:10.630Z,98893.22
2022-08-19T20:45:38.604Z,98897.75
2022-08-19T20:48:09.009Z,98897.06
2022-08-19T20:50:37.539Z,98902.59
2022-08-19T20:53:11.367Z,98909.25
2022-08-19T20:55:38.931Z,98907.72
2022-08-19T20:58:06.477Z,98902.38
2022-08-19T21:00:35.314Z,98906.50
2022-08-19T21:03:02.848Z,98907.97
2022-08-19T21:05:30.790Z,98915.72
2022-08-19T21:07:58.589Z,98918.22
2022-08-19T21:10:26.287Z,98908.81
2022-08-19T21:12:55.401Z,98902.09
2022-08-19T21:15:24.613Z,98908.28
2022-08-19T21:17:53.443Z,98907.59
2022-08-19T21:20:20.942Z,98915.63
2022-08-19T21:22:48.487Z,98914.78
2022-08-19T21:25:17.627Z,98906.06
2022-08-19T21:27:45.122Z,98908.75
2022-08-19T21:30:14.075Z,98908.75
2022-08-19T21:32:41.560Z,98913.44
2022-08-19T21:35:11.143Z,98909.19
2022-08-19T21:37:38.798Z,98921.47
2022-08-19T21:40:07.513Z,98919.47
2022-08-19T21:42:35.830Z,98916.09
2022-08-19T21:45:03.582Z,98919.75
2022-08-19T21:47:31.099Z,98914.41
2022-08-19T21:49:58.646Z,98915.09
2022-08-19T21:52:28.095Z,98913.25
2022-08-19T21:54:55.644Z,98918.63
2022-08-19T21:57:24.509Z,98920.31
2022-08-19T21:59:52.103Z,98915.94
2022-08-19T22:02:21.353Z,98916.09
2022-08-19T22:04:49.846Z,98915.41
2022-08-19T22:07:17.387Z,98905.84
2022-08-19T22:09:47.924Z,98905.47
2022-08-19T22:12:23.933Z,98892.84
2022-08-19T22:14:51.839Z,98898.38
2022-08-19T22:17:20.186Z,98900.34
2022-08-19T22:19:48.025Z,98896.44
2022-08-19T22:22:21.425Z,98898.25
2022-08-19T22:24:50.221Z,98898.44
2022-08-19T22:27:17.738Z,98899.44
2022-08-19T22:29:45.339Z,98910.28
2022-08-19T22:32:26.552Z,98910.13
2022-08-19T22:34:58.636Z,98918.00
2022-08-19T22:37:26.447Z,98920.69
2022-08-19T22:39:55.645Z,98912.81
2022-08-19T22:42:24.883Z,98914.50
2022-08-19T22:44:59.837Z,98919.69
2022-08-19T22:47:30.252Z,98921.22
2022-08-19T22:50:00.709Z,98915.56
2022-08-19T22:52:27.491Z,98921.47
2022-08-19T22:55:00.161Z,98919.63
2022-08-19T22:57:28.175Z,98905.22
2022-08-19T23:00:01.004Z,98916.94
2022-08-19T23:02:32.328Z,98904.56
2022-08-19T23:05:02.273Z,98905.56
2022-08-19T23:07:29.784Z,98901.88
2022-08-19T23:09:58.594Z,98902.00
2022-08-19T23:12:28.503Z,98904.84
2022-08-19T23:14:56.010Z,98909.38
2022-08-19T23:17:23.504Z,98905.84
2022-08-19T23:19:51.597Z,98907.53
2022-08-19T23:22:20.031Z,98903.84
2022-08-19T23:24:55.998Z,98899.19
2022-08-19T23:27:42.827Z,98905.06
2022-08-19T23:30:26.737Z,98904.94
2022-08-19T23:32:55.184Z,98901.25
2022-08-19T23:35:23.141Z,98901.09
2022-08-19T23:37:52.154Z,98908.13
2022-08-19T23:40:21.615Z,98915.16
2022-08-19T23:42:52.801Z,98909.06
2022-08-19T23:45:23.625Z,98906.53
2022-08-19T23:47:51.721Z,98904.69
2022-08-19T23:50:20.904Z,98904.69
2022-08-19T23:52:51.789Z,98906.22
2022-08-19T23:55:22.019Z,98910.75
2022-08-19T23:57:51.039Z,98908.06
